Time;durP1;ratioP1;P1;durP2;ratioP2;P2;SDS_P1;SDS_P2;PMS_P1;PMS_P2;Temp;Humidity;BMP_temperature;BMP_pressure;BME280_temperature;BME280_humidity;BME280_pressure;Samples;Min_cycle;Max_cycle;Signal;HPM_P1;HPM_P2
2023/01/11 00:01:00;;;;;;;2.83;1.40;;;3.20;69.60;;;;;;5092318;28;20250;-65
2023/01/11 00:03:29;;;;;;;1.95;0.90;;;3.20;69.80;;;;;;5092433;28;20207;-65
2023/01/11 00:05:57;;;;;;;3.70;1.35;;;3.20;69.20;;;;;;5091895;28;21020;-64
2023/01/11 00:08:26;;;;;;;2.47;1.30;;;3.10;69.60;;;;;;5092159;28;20238;-64
2023/01/11 00:10:55;;;;;;;3.65;1.50;;;3.00;69.30;;;;;;5091769;28;20193;-64
2023/01/11 00:13:22;;;;;;;2.30;1.10;;;3.00;69.30;;;;;;5091853;28;20216;-64
2023/01/11 00:15:49;;;;;;;3.40;1.60;;;3.00;69.80;;;;;;5092031;28;20185;-64
2023/01/11 00:18:16;;;;;;;2.22;0.90;;;3.10;70.50;;;;;;5091590;28;20221;-65
2023/01/11 00:20:44;;;;;;;2.40;0.90;;;3.20;69.80;;;;;;5092045;28;20223;-64
2023/01/11 00:23:11;;;;;;;3.88;1.50;;;3.20;70.10;;;;;;5092123;28;20231;-65
2023/01/11 00:25:40;;;;;;;4.43;1.65;;;3.20;70.00;;;;;;5091652;28;20632;-65
2023/01/11 00:28:09;;;;;;;4.13;1.35;;;3.20;69.90;;;;;;5092236;28;20280;-65
2023/01/11 00:30:36;;;;;;;3.00;1.20;;;3.30;69.60;;;;;;5091824;28;20192;-65
2023/01/11 00:33:04;;;;;;;3.63;1.33;;;3.30;69.00;;;;;;5092259;28;20220;-65
2023/01/11 00:35:32;;;;;;;4.80;1.30;;;3.30;69.50;;;;;;5091463;28;20207;-65
2023/01/11 00:37:59;;;;;;;2.40;1.30;;;3.30;69.70;;;;;;5093189;28;20535;-65
2023/01/11 00:40:26;;;;;;;3.30;1.15;;;3.40;69.40;;;;;;5095659;28;20185;-64
2023/01/11 00:48:39;;;;;;;2.25;0.80;;;3.50;69.60;;;;;;5053355;28;20190;-65
2023/01/11 00:51:06;;;;;;;2.17;1.00;;;3.50;69.40;;;;;;5053507;28;20297;-65
2023/01/11 00:53:33;;;;;;;3.08;0.98;;;3.40;69.30;;;;;;5071469;28;20278;-68
2023/01/11 00:56:00;;;;;;;2.25;1.08;;;3.40;69.30;;;;;;5095867;28;20249;-65
2023/01/11 00:58:32;;;;;;;2.97;0.90;;;3.40;69.50;;;;;;5095231;28;20586;-64
2023/01/11 01:01:06;;;;;;;2.05;0.88;;;3.40;69.20;;;;;;5095956;28;20546;-66
2023/01/11 01:03:35;;;;;;;1.90;0.85;;;3.40;68.70;;;;;;5095276;28;20241;-64
2023/01/11 01:06:02;;;;;;;4.22;1.25;;;3.40;68.50;;;;;;5095542;28;20197;-65
2023/01/11 01:08:29;;;;;;;2.30;1.10;;;3.50;68.90;;;;;;5095414;28;20193;-64
2023/01/11 01:10:56;;;;;;;1.88;0.80;;;3.50;68.60;;;;;;5095286;28;20540;-65
2023/01/11 01:16:09;;;;;;;2.45;1.05;;;3.40;68.50;;;;;;5095694;28;20214;-65
2023/01/11 01:18:36;;;;;;;1.88;0.90;;;3.40;68.80;;;;;;5094694;28;20228;-65
2023/01/11 01:21:04;;;;;;;2.33;0.98;;;3.50;69.20;;;;;;5095067;28;20216;-65
2023/01/11 01:23:31;;;;;;;2.88;0.95;;;3.60;69.30;;;;;;5095378;28;20204;-65
2023/01/11 01:25:58;;;;;;;2.10;0.90;;;3.60;69.60;;;;;;5094715;28;20189;-65
2023/01/11 01:28:25;;;;;;;1.98;1.02;;;3.60;69.80;;;;;;5095209;28;20181;-64
2023/01/11 01:30:52;;;;;;;1.60;0.70;;;3.60;69.90;;;;;;5094571;28;20254;-65
2023/01/11 01:33:21;;;;;;;2.88;1.90;;;3.70;69.70;;;;;;5095016;28;20212;-65
2023/01/11 01:35:49;;;;;;;2.10;0.90;;;3.70;69.40;;;;;;5094517;28;20182;-64
2023/01/11 01:38:16;;;;;;;2.05;0.80;;;3.70;69.30;;;;;;5094798;28;20235;-65
2023/01/11 01:40:45;;;;;;;2.83;1.13;;;3.70;69.80;;;;;;5094542;28;20651;-65
2023/01/11 01:43:13;;;;;;;2.10;0.90;;;3.70;70.00;;;;;;5094841;28;20196;-64
2023/01/11 01:45:41;;;;;;;2.20;0.82;;;3.70;69.90;;;;;;5094752;28;20181;-65
2023/01/11 01:48:11;;;;;;;3.30;0.90;;;3.80;69.60;;;;;;5094442;28;20188;-65
2023/01/11 01:50:47;;;;;;;1.83;0.90;;;3.70;68.60;;;;;;5094456;28;20189;-64
2023/01/11 01:53:18;;;;;;;2.47;0.95;;;3.80;69.10;;;;;;5094639;28;20220;-65
2023/01/11 01:55:49;;;;;;;2.25;0.77;;;3.80;68.70;;;;;;5094429;28;20639;-65
2023/01/11 01:58:20;;;;;;;1.83;0.93;;;3.70;68.30;;;;;;5094738;28;20230;-65
2023/01/11 02:00:47;;;;;;;2.30;1.10;;;3.70;68.80;;;;;;5094383;28;20246;-65
2023/01/11 02:03:19;;;;;;;2.25;0.80;;;3.80;68.40;;;;;;5094505;28;20189;-65
2023/01/11 02:05:48;;;;;;;2.17;0.80;;;3.80;68.40;;;;;;5094019;28;20196;-64
2023/01/11 02:08:21;;;;;;;3.58;1.10;;;3.90;68.50;;;;;;5094032;28;20189;-65
2023/01/11 02:10:48;;;;;;;2.85;1.00;;;3.90;68.60;;;;;;5093835;28;20235;-65
2023/01/11 02:13:16;;;;;;;1.90;0.85;;;3.80;68.10;;;;;;5094434;28;20213;-63
2023/01/11 02:15:42;;;;;;;2.17;0.95;;;3.90;68.70;;;;;;5093927;28;20189;-67
2023/01/11 02:18:11;;;;;;;2.47;0.80;;;4.00;68.20;;;;;;5093654;28;20229;-65
2023/01/11 02:20:55;;;;;;;2.17;0.80;;;4.00;68.00;;;;;;5094189;28;20276;-65
2023/01/11 02:23:58;;;;;;;2.53;0.90;;;4.00;68.10;;;;;;5074116;28;20193;-65
2023/01/11 02:26:54;;;;;;;1.90;0.80;;;4.00;68.20;;;;;;5082169;28;20686;-65
2023/01/11 02:29:33;;;;;;;2.63;0.95;;;4.10;68.10;;;;;;5094231;28;20280;-65
2023/01/11 02:32:10;;;;;;;2.63;1.13;;;4.10;67.80;;;;;;5089538;28;20185;-65
2023/01/11 02:34:45;;;;;;;1.83;0.90;;;4.20;67.90;;;;;;5093555;28;20231;-66
2023/01/11 02:37:23;;;;;;;2.22;1.10;;;4.20;67.90;;;;;;5073708;28;20185;-65
2023/01/11 02:40:00;;;;;;;2.97;0.80;;;4.30;67.30;;;;;;5074863;28;20243;-63
2023/01/11 02:45:36;;;;;;;2.10;0.80;;;4.40;67.00;;;;;;5093967;28;20196;-63
2023/01/11 02:48:14;;;;;;;2.83;1.10;;;4.40;67.50;;;;;;5093798;28;20223;-66
2023/01/11 02:50:47;;;;;;;3.13;1.05;;;4.40;68.10;;;;;;5093351;28;20216;-64
2023/01/11 02:53:21;;;;;;;2.15;0.98;;;4.40;68.20;;;;;;5093203;28;20695;-64
2023/01/11 02:55:54;;;;;;;2.95;0.77;;;4.50;68.10;;;;;;5093382;28;20610;-63
2023/01/11 02:58:25;;;;;;;2.20;0.80;;;4.50;67.90;;;;;;5093172;28;20193;-63
2023/01/11 03:00:57;;;;;;;4.10;0.70;;;4.50;68.40;;;;;;5092985;28;20787;-63
2023/01/11 03:03:27;;;;;;;2.35;0.70;;;4.50;68.10;;;;;;5093051;28;20278;-63
2023/01/11 03:06:00;;;;;;;4.28;1.40;;;4.60;68.30;;;;;;5093494;28;20199;-63
2023/01/11 03:08:51;;;;;;;2.60;1.00;;;4.60;68.20;;;;;;5093064;28;20284;-64
2023/01/11 03:14:20;;;;;;;3.00;1.02;;;4.60;68.90;;;;;;5092575;28;20209;-63
2023/01/11 03:16:55;;;;;;;2.28;0.95;;;4.60;69.30;;;;;;5092859;28;20185;-63
2023/01/11 03:19:30;;;;;;;1.80;0.80;;;4.70;69.30;;;;;;5092902;28;20228;-65
2023/01/11 03:22:08;;;;;;;2.70;0.82;;;4.70;69.60;;;;;;5092723;28;20196;-64
2023/01/11 03:24:43;;;;;;;1.95;0.75;;;4.70;69.70;;;;;;5093192;28;20651;-64
2023/01/11 03:27:20;;;;;;;1.90;0.95;;;4.70;69.90;;;;;;5092443;28;20180;-63
2023/01/11 03:29:54;;;;;;;2.60;1.08;;;4.80;70.50;;;;;;5092921;28;20200;-63
2023/01/11 03:32:32;;;;;;;2.53;0.80;;;4.80;70.70;;;;;;5092486;28;20275;-63
2023/01/11 03:35:11;;;;;;;3.47;1.10;;;4.70;70.40;;;;;;5092807;28;20216;-63
2023/01/11 03:37:43;;;;;;;1.98;0.95;;;4.80;71.00;;;;;;5092628;28;20272;-63
2023/01/11 03:40:16;;;;;;;2.08;0.70;;;4.80;72.00;;;;;;5092271;28;20213;-64
2023/01/11 03:45:36;;;;;;;2.00;0.88;;;4.80;71.20;;;;;;5092617;28;20203;-63
2023/01/11 03:48:09;;;;;;;1.92;0.80;;;4.80;71.50;;;;;;5093162;28;20276;-63
2023/01/11 03:50:36;;;;;;;2.55;0.68;;;4.80;71.80;;;;;;5092134;28;20178;-63
2023/01/11 03:53:06;;;;;;;1.83;0.68;;;4.80;71.80;;;;;;5092596;28;20644;-63
2023/01/11 03:55:39;;;;;;;1.80;0.70;;;4.70;72.00;;;;;;5092490;28;20193;-63
2023/01/11 03:58:07;;;;;;;1.92;0.88;;;4.60;72.70;;;;;;5092786;28;20548;-67
2023/01/11 04:00:36;;;;;;;1.90;0.80;;;4.60;73.30;;;;;;5092296;28;20254;-63
2023/01/11 04:03:08;;;;;;;2.50;0.90;;;4.60;73.50;;;;;;5092472;28;20185;-64
2023/01/11 04:05:36;;;;;;;1.50;0.60;;;4.60;73.30;;;;;;5092931;28;20200;-64
2023/01/11 04:08:06;;;;;;;2.50;0.70;;;4.70;73.30;;;;;;5092266;28;20655;-63
2023/01/11 04:10:34;;;;;;;1.73;0.60;;;4.70;73.20;;;;;;5092554;28;20220;-63
2023/01/11 04:13:01;;;;;;;1.70;0.73;;;4.70;73.00;;;;;;5093350;28;20584;-63
2023/01/11 04:15:30;;;;;;;1.77;0.80;;;4.80;72.90;;;;;;5096878;28;20597;-63
2023/01/11 04:18:03;;;;;;;3.55;1.00;;;4.80;72.90;;;;;;5096142;28;20618;-63
2023/01/11 04:20:32;;;;;;;1.65;0.80;;;4.70;73.20;;;;;;5096764;28;20203;-64
2023/01/11 04:22:59;;;;;;;3.00;0.80;;;4.70;73.30;;;;;;5095777;28;20182;-63
2023/01/11 04:25:26;;;;;;;2.72;0.90;;;4.70;73.60;;;;;;5095889;28;20278;-64
2023/01/11 04:27:54;;;;;;;2.00;1.02;;;4.80;73.60;;;;;;5096263;28;20189;-63
2023/01/11 04:30:21;;;;;;;2.78;1.15;;;4.80;73.40;;;;;;5096411;28;20189;-63
2023/01/11 04:32:48;;;;;;;2.30;1.30;;;4.70;73.70;;;;;;5096542;28;20189;-64
2023/01/11 04:35:16;;;;;;;2.35;1.55;;;4.80;73.70;;;;;;5096121;28;20225;-63
2023/01/11 04:37:45;;;;;;;2.40;1.20;;;4.80;73.80;;;;;;5096426;28;20188;-63
2023/01/11 04:40:12;;;;;;;5.13;1.30;;;4.80;73.60;;;;;;5095779;28;20212;-64
2023/01/11 04:42:39;;;;;;;4.70;3.25;;;4.80;73.70;;;;;;5096282;28;20242;-64
2023/01/11 04:45:07;;;;;;;6.45;4.07;;;4.90;73.80;;;;;;5096294;28;20189;-64
2023/01/11 04:47:35;;;;;;;3.95;2.90;;;4.90;73.70;;;;;;5096199;28;20306;-64
2023/01/11 04:50:02;;;;;;;3.38;1.63;;;4.90;73.70;;;;;;5095994;28;20197;-64
2023/01/11 04:52:29;;;;;;;4.07;2.10;;;4.90;73.50;;;;;;5096399;28;20200;-63
2023/01/11 04:54:58;;;;;;;2.33;1.10;;;4.80;73.80;;;;;;5095605;28;20294;-63
2023/01/11 04:57:25;;;;;;;3.30;1.15;;;4.70;74.00;;;;;;5095987;28;20742;-63
2023/01/11 04:59:52;;;;;;;2.75;1.50;;;4.80;74.30;;;;;;5095666;28;20189;-63
2023/01/11 05:02:19;;;;;;;1.90;0.90;;;4.80;74.20;;;;;;5096278;28;20189;-63
2023/01/11 05:04:47;;;;;;;4.05;1.10;;;4.80;74.10;;;;;;5095585;28;20193;-64
2023/01/11 05:07:15;;;;;;;5.72;1.00;;;4.80;74.20;;;;;;5095974;28;20227;-64
2023/01/11 05:09:42;;;;;;;2.83;1.00;;;4.80;74.10;;;;;;5095650;28;20192;-64
2023/01/11 05:12:12;;;;;;;1.95;0.90;;;4.80;73.80;;;;;;5095922;28;20553;-64
2023/01/11 05:14:39;;;;;;;4.65;1.20;;;4.80;73.80;;;;;;5095388;28;20216;-64
2023/01/11 05:17:06;;;;;;;2.30;0.90;;;4.80;73.90;;;;;;5095431;28;20222;-64
2023/01/11 05:19:38;;;;;;;3.63;1.40;;;4.80;74.60;;;;;;5095897;28;20225;-64
2023/01/11 05:22:05;;;;;;;4.70;1.50;;;4.90;74.10;;;;;;5095059;28;20280;-64
2023/01/11 05:24:32;;;;;;;2.72;1.20;;;4.90;74.00;;;;;;5095357;28;20262;-64
2023/01/11 05:27:02;;;;;;;2.58;1.00;;;5.00;73.90;;;;;;5095248;28;20189;-63
2023/01/11 05:29:31;;;;;;;3.83;1.02;;;5.00;73.70;;;;;;5095615;28;20196;-63
2023/01/11 05:31:58;;;;;;;2.47;1.17;;;5.00;73.90;;;;;;5095241;28;20227;-63
2023/01/11 05:34:26;;;;;;;2.28;0.95;;;5.00;74.10;;;;;;5095511;28;20213;-63
2023/01/11 05:36:53;;;;;;;2.85;0.88;;;5.00;73.90;;;;;;5094879;28;20271;-64
2023/01/11 05:39:21;;;;;;;1.98;1.15;;;5.00;74.10;;;;;;5095426;28;20189;-66
2023/01/11 05:41:49;;;;;;;2.30;1.02;;;4.90;74.30;;;;;;5094398;28;20238;-63
2023/01/11 05:47:03;;;;;;;2.15;0.90;;;4.90;74.60;;;;;;5095269;28;20671;-63
2023/01/11 05:49:30;;;;;;;2.00;0.82;;;5.00;74.60;;;;;;5095062;28;20647;-64
2023/01/11 05:51:57;;;;;;;4.32;1.77;;;5.00;74.30;;;;;;5095261;28;20228;-63
2023/01/11 05:54:24;;;;;;;2.50;1.30;;;5.10;73.70;;;;;;5094474;28;20574;-64
2023/01/11 05:56:55;;;;;;;2.22;0.98;;;5.10;73.50;;;;;;5094954;28;20189;-64
2023/01/11 05:59:22;;;;;;;3.35;1.23;;;5.10;73.20;;;;;;5094608;28;20181;-64
2023/01/11 06:01:50;;;;;;;2.45;1.10;;;5.10;72.70;;;;;;5094866;28;20189;-64
2023/01/11 06:04:18;;;;;;;2.38;1.45;;;5.10;72.80;;;;;;5094765;28;20659;-63
2023/01/11 06:06:46;;;;;;;4.50;2.50;;;5.00;73.00;;;;;;5094796;28;20193;-64
2023/01/11 06:09:14;;;;;;;18.38;8.13;;;5.00;73.20;;;;;;5094156;28;20189;-65
2023/01/11 06:11:43;;;;;;;9.00;5.60;;;5.00;73.30;;;;;;5094659;28;20193;-64
2023/01/11 06:14:10;;;;;;;12.45;5.45;;;4.80;73.30;;;;;;5093896;28;20694;-63
2023/01/11 06:16:40;;;;;;;5.60;2.22;;;4.90;73.60;;;;;;5094770;28;20197;-64
2023/01/11 06:19:10;;;;;;;2.92;1.55;;;4.90;73.50;;;;;;5094012;28;20217;-65
2023/01/11 06:21:39;;;;;;;2.20;1.13;;;5.00;73.40;;;;;;5094692;28;20189;-64
2023/01/11 06:24:09;;;;;;;2.55;1.23;;;5.00;73.30;;;;;;5093860;28;20594;-63
2023/01/11 06:26:36;;;;;;;2.78;0.90;;;5.00;73.50;;;;;;5093977;28;20884;-64
2023/01/11 06:29:04;;;;;;;2.42;0.88;;;5.10;73.70;;;;;;5094015;28;20185;-67
2023/01/11 06:31:32;;;;;;;2.78;1.00;;;5.20;73.60;;;;;;5094406;28;20203;-63
2023/01/11 06:33:59;;;;;;;2.65;1.20;;;5.20;73.50;;;;;;5093781;28;20242;-63
2023/01/11 06:36:26;;;;;;;2.65;1.08;;;5.10;74.00;;;;;;5093480;28;20272;-63
2023/01/11 06:38:55;;;;;;;1.90;0.80;;;5.10;75.20;;;;;;5094095;28;20185;-63
2023/01/11 06:41:24;;;;;;;1.90;0.90;;;5.20;74.50;;;;;;5094134;28;20215;-63
2023/01/11 06:43:52;;;;;;;3.60;0.98;;;5.10;74.70;;;;;;5093453;28;20189;-63
2023/01/11 06:46:19;;;;;;;2.60;1.40;;;5.20;74.90;;;;;;5093854;28;20226;-64
2023/01/11 06:48:47;;;;;;;6.88;1.33;;;5.20;75.00;;;;;;5093766;28;20192;-63
2023/01/11 06:51:15;;;;;;;2.33;1.20;;;5.10;75.40;;;;;;5094138;28;20197;-63
2023/01/11 06:53:44;;;;;;;2.78;1.50;;;5.10;75.50;;;;;;5093204;28;20195;-63
2023/01/11 06:56:16;;;;;;;3.70;1.20;;;5.10;75.70;;;;;;5093798;28;20221;-63
2023/01/11 06:58:43;;;;;;;4.60;1.55;;;5.20;75.90;;;;;;5093630;28;20196;-64
2023/01/11 07:01:11;;;;;;;3.03;1.40;;;5.20;75.90;;;;;;5093406;28;20666;-65
2023/01/11 07:03:40;;;;;;;2.60;0.98;;;5.30;75.70;;;;;;5094087;28;20185;-64
2023/01/11 07:06:09;;;;;;;2.13;1.10;;;5.30;75.60;;;;;;5092163;28;20655;-64
2023/01/11 07:08:37;;;;;;;3.88;1.33;;;5.30;75.30;;;;;;5093419;28;20638;-64
2023/01/11 07:11:04;;;;;;;1.80;0.80;;;5.40;75.40;;;;;;5093887;28;20224;-64
2023/01/11 07:13:33;;;;;;;4.07;1.58;;;5.40;75.40;;;;;;5093941;28;20296;-64
2023/01/11 07:16:00;;;;;;;2.83;1.60;;;5.40;75.10;;;;;;5089583;28;20290;-64
2023/01/11 07:18:30;;;;;;;3.17;2.03;;;5.50;75.00;;;;;;5092721;28;20253;-63
2023/01/11 07:20:57;;;;;;;2.28;1.20;;;5.50;74.90;;;;;;5093062;28;20193;-64
2023/01/11 07:23:24;;;;;;;3.70;1.48;;;5.50;74.90;;;;;;5093343;28;20229;-64
2023/01/11 07:25:52;;;;;;;1.88;0.88;;;5.60;74.90;;;;;;5092801;28;20193;-63
2023/01/11 07:28:19;;;;;;;2.20;1.10;;;5.60;74.70;;;;;;5093407;28;20232;-64
2023/01/11 07:30:48;;;;;;;1.70;0.70;;;5.60;74.20;;;;;;5092594;28;20213;-64
2023/01/11 07:33:15;;;;;;;2.08;0.85;;;5.60;74.10;;;;;;5091988;28;20573;-63
2023/01/11 07:35:42;;;;;;;2.00;1.00;;;5.70;73.90;;;;;;5092363;28;20219;-63
2023/01/11 07:38:10;;;;;;;2.17;0.90;;;5.60;73.90;;;;;;5092919;28;20233;-64
2023/01/11 07:40:38;;;;;;;2.05;0.60;;;5.60;74.20;;;;;;5092682;28;20177;-64
2023/01/11 07:43:18;;;;;;;2.40;0.95;;;5.70;74.10;;;;;;5088147;28;20531;-64
2023/01/11 07:45:49;;;;;;;3.58;0.85;;;5.70;74.00;;;;;;5089377;28;20195;-65
2023/01/11 07:48:19;;;;;;;1.80;0.70;;;5.70;74.20;;;;;;5091400;28;20250;-64
2023/01/11 07:50:47;;;;;;;2.75;0.90;;;5.80;74.20;;;;;;5091032;28;20181;-63
2023/01/11 07:53:14;;;;;;;2.67;0.90;;;5.80;73.80;;;;;;5091286;28;20181;-63
2023/01/11 07:55:42;;;;;;;2.08;0.88;;;5.90;73.20;;;;;;5072520;28;20270;-64
2023/01/11 07:58:12;;;;;;;2.08;0.85;;;5.90;73.30;;;;;;5073329;28;20201;-63
2023/01/11 08:00:39;;;;;;;2.85;1.20;;;5.90;73.40;;;;;;5072460;28;20556;-64
2023/01/11 08:03:12;;;;;;;3.10;1.05;;;6.00;73.90;;;;;;5072880;28;20194;-63
2023/01/11 08:05:39;;;;;;;2.75;1.35;;;6.00;73.30;;;;;;5073066;28;20197;-65
2023/01/11 08:08:06;;;;;;;2.50;0.95;;;6.10;73.20;;;;;;5073148;28;20715;-63
2023/01/11 08:10:33;;;;;;;2.72;1.10;;;6.10;72.60;;;;;;5072988;28;20222;-64
2023/01/11 08:15:47;;;;;;;2.83;1.10;;;6.20;72.90;;;;;;5073081;28;20220;-64
2023/01/11 08:18:16;;;;;;;2.03;1.08;;;6.30;73.00;;;;;;5072360;28;20309;-64
2023/01/11 08:20:44;;;;;;;3.00;1.40;;;6.40;72.60;;;;;;5072602;28;20190;-64
2023/01/11 08:23:11;;;;;;;3.30;1.20;;;6.60;72.70;;;;;;5073112;28;20574;-64
2023/01/11 08:25:38;;;;;;;1.92;1.00;;;6.70;72.40;;;;;;5072714;28;20232;-64
2023/01/11 08:28:07;;;;;;;1.98;0.90;;;6.90;72.30;;;;;;5072825;28;20196;-63
2023/01/11 08:30:34;;;;;;;2.05;0.82;;;7.10;70.00;;;;;;5072702;28;20221;-64
2023/01/11 08:33:02;;;;;;;3.65;1.00;;;7.20;69.80;;;;;;5072734;28;20191;-63
2023/01/11 08:35:31;;;;;;;1.95;0.90;;;7.30;69.20;;;;;;5072774;28;20266;-63
2023/01/11 08:37:58;;;;;;;2.08;1.33;;;7.40;68.30;;;;;;5072742;28;20537;-63
2023/01/11 08:40:25;;;;;;;2.00;1.20;;;7.40;67.70;;;;;;5072457;28;20283;-64
2023/01/11 08:42:57;;;;;;;2.53;1.50;;;7.60;68.10;;;;;;5072780;28;20232;-64
2023/01/11 08:45:24;;;;;;;2.40;1.10;;;7.80;68.10;;;;;;5072495;28;20197;-64
2023/01/11 08:47:56;;;;;;;6.75;1.45;;;7.90;66.80;;;;;;5072714;28;20288;-65
2023/01/11 08:50:23;;;;;;;3.03;1.35;;;7.90;66.70;;;;;;5072736;28;20204;-64
2023/01/11 08:52:51;;;;;;;2.22;1.08;;;8.10;65.30;;;;;;5072676;28;20240;-64
2023/01/11 08:55:19;;;;;;;2.13;0.98;;;8.30;64.90;;;;;;5072410;28;20651;-63
2023/01/11 08:57:46;;;;;;;2.63;1.02;;;8.50;64.90;;;;;;5072386;28;20623;-64
2023/01/11 09:00:14;;;;;;;2.10;1.00;;;8.70;64.70;;;;;;5074853;28;20228;-64
2023/01/11 09:02:41;;;;;;;2.00;0.90;;;9.00;64.10;;;;;;5076126;28;20228;-65
2023/01/11 09:05:09;;;;;;;2.00;1.10;;;9.20;63.60;;;;;;5076191;28;20239;-64
2023/01/11 09:07:35;;;;;;;2.80;1.00;;;9.50;61.50;;;;;;5076066;28;20232;-64
2023/01/11 09:10:05;;;;;;;2.05;1.20;;;9.90;60.50;;;;;;5076275;28;20280;-65
2023/01/11 09:12:32;;;;;;;2.40;1.13;;;10.10;58.50;;;;;;5075667;28;20225;-64
2023/01/11 09:14:59;;;;;;;2.17;1.10;;;9.90;58.40;;;;;;5076003;28;20693;-64
2023/01/11 09:17:26;;;;;;;3.28;1.88;;;10.00;57.80;;;;;;5075843;28;20229;-65
2023/01/11 09:19:53;;;;;;;2.88;1.55;;;10.20;58.60;;;;;;5076104;28;20616;-64
2023/01/11 09:22:20;;;;;;;2.53;1.17;;;10.40;57.30;;;;;;5082124;28;20284;-64
2023/01/11 09:24:47;;;;;;;3.58;1.58;;;10.40;56.80;;;;;;5094308;28;20228;-64
2023/01/11 09:27:15;;;;;;;2.55;1.52;;;10.50;57.00;;;;;;5095021;28;20189;-64
2023/01/11 09:29:42;;;;;;;8.45;5.20;;;10.70;57.10;;;;;;5092301;28;20224;-65
2023/01/11 09:32:09;;;;;;;4.07;2.00;;;10.90;56.80;;;;;;5094382;28;20240;-64
2023/01/11 09:34:36;;;;;;;2.50;1.23;;;11.10;56.10;;;;;;5094814;28;20587;-65
2023/01/11 09:37:05;;;;;;;2.90;1.65;;;11.20;55.90;;;;;;5094972;28;20263;-65
2023/01/11 09:39:33;;;;;;;3.17;1.42;;;11.30;55.00;;;;;;5094805;28;20246;-64
2023/01/11 09:42:28;;;;;;;2.92;2.05;;;11.30;55.30;;;;;;5094384;28;20194;-64
2023/01/11 09:44:59;;;;;;;4.15;2.03;;;11.40;55.50;;;;;;5093764;28;20201;-64
2023/01/11 09:47:35;;;;;;;3.75;2.05;;;11.50;54.40;;;;;;5094552;28;20201;-64
2023/01/11 09:50:06;;;;;;;2.10;1.20;;;11.50;55.40;;;;;;5094980;28;20199;-64
2023/01/11 09:52:38;;;;;;;2.38;1.42;;;11.70;54.80;;;;;;5094469;28;20270;-64
2023/01/11 09:55:10;;;;;;;2.80;1.25;;;11.90;54.10;;;;;;5094167;28;20314;-64
2023/01/11 09:57:50;;;;;;;5.40;1.50;;;12.10;54.10;;;;;;5094496;28;20232;-65
2023/01/11 10:00:26;;;;;;;2.30;0.90;;;12.50;53.10;;;;;;5092184;28;20447;-64
2023/01/11 10:03:13;;;;;;;1.93;0.90;;;12.80;51.80;;;;;;5093294;28;20906;-65
2023/01/11 10:06:01;;;;;;;2.03;1.00;;;12.80;51.90;;;;;;5093916;28;20936;-65
2023/01/11 10:08:45;;;;;;;2.63;1.07;;;13.10;51.40;;;;;;5093657;28;20439;-64
2023/01/11 10:11:26;;;;;;;2.00;0.80;;;13.40;51.60;;;;;;5092760;28;20549;-64
2023/01/11 10:14:06;;;;;;;2.47;1.10;;;13.40;50.60;;;;;;5093065;28;20455;-65
2023/01/11 10:16:46;;;;;;;3.07;1.50;;;13.40;49.10;;;;;;5094051;28;20485;-65
2023/01/11 10:19:17;;;;;;;2.80;1.10;;;13.50;49.30;;;;;;5093716;28;20471;-65
2023/01/11 10:21:49;;;;;;;2.87;1.47;;;13.60;48.60;;;;;;5093813;28;20867;-64
2023/01/11 10:24:24;;;;;;;3.30;1.40;;;13.70;48.30;;;;;;5093141;28;20807;-65
2023/01/11 10:26:56;;;;;;;7.50;1.63;;;13.90;48.30;;;;;;5092420;28;20439;-64
2023/01/11 10:29:44;;;;;;;2.13;1.10;;;14.10;49.00;;;;;;5092544;28;20466;-64
2023/01/11 10:32:44;;;;;;;2.70;1.20;;;14.30;47.70;;;;;;5091972;28;20793;-64
2023/01/11 10:35:40;;;;;;;3.10;0.90;;;14.10;47.70;;;;;;5093569;28;20435;-64
2023/01/11 10:38:29;;;;;;;2.00;0.90;;;14.30;47.90;;;;;;5093681;28;20474;-65
2023/01/11 10:41:07;;;;;;;2.20;1.10;;;14.50;47.20;;;;;;5092774;28;20516;-65
2023/01/11 10:43:39;;;;;;;2.30;1.00;;;14.70;48.20;;;;;;5090313;28;20450;-65
2023/01/11 10:46:12;;;;;;;2.20;1.20;;;15.00;47.60;;;;;;5093240;28;20470;-65
2023/01/11 10:48:42;;;;;;;3.70;1.90;;;15.40;48.70;;;;;;5091393;28;20447;-64
2023/01/11 10:51:18;;;;;;;3.70;1.20;;;15.70;47.40;;;;;;5092925;28;20500;-65
2023/01/11 10:54:01;;;;;;;2.57;1.20;;;15.60;46.10;;;;;;5093300;28;20450;-64
2023/01/11 10:56:42;;;;;;;2.37;1.30;;;15.60;47.00;;;;;;5092660;28;20993;-64
2023/01/11 10:59:25;;;;;;;3.33;1.30;;;15.90;47.30;;;;;;5090820;28;20447;-65
2023/01/11 11:02:04;;;;;;;3.20;1.90;;;16.20;46.90;;;;;;5093059;28;20439;-65
2023/01/11 11:04:59;;;;;;;2.70;1.80;;;16.20;46.10;;;;;;5092909;28;20839;-65
2023/01/11 11:07:33;;;;;;;4.17;1.50;;;16.20;46.00;;;;;;5092709;28;20435;-64
2023/01/11 11:10:07;;;;;;;2.47;1.50;;;16.20;45.80;;;;;;5092109;28;20851;-65
2023/01/11 11:12:38;;;;;;;2.50;1.07;;;16.00;46.80;;;;;;5089003;28;20438;-65
2023/01/11 11:15:11;;;;;;;2.30;1.20;;;16.00;46.60;;;;;;5088896;28;20453;-65
2023/01/11 11:17:41;;;;;;;2.43;1.20;;;15.80;47.00;;;;;;5088986;28;21060;-64
2023/01/11 11:20:14;;;;;;;2.40;1.30;;;15.60;46.30;;;;;;5089623;28;20435;-65
2023/01/11 11:22:41;;;;;;;3.20;1.70;;;15.30;46.30;;;;;;5088940;28;20538;-65
2023/01/11 11:25:16;;;;;;;2.40;1.00;;;14.90;46.70;;;;;;5093292;28;20439;-65
2023/01/11 11:27:48;;;;;;;2.17;1.10;;;14.50;47.20;;;;;;5092824;28;20438;-64
2023/01/11 11:30:28;;;;;;;2.60;1.10;;;14.30;48.00;;;;;;5092595;28;20522;-65
2023/01/11 11:32:59;;;;;;;2.00;1.10;;;14.10;48.90;;;;;;5092486;28;20469;-64
2023/01/11 11:35:36;;;;;;;13.97;4.57;;;14.00;48.80;;;;;;5092482;28;20439;-64
2023/01/11 11:38:04;;;;;;;2.60;1.30;;;13.80;50.00;;;;;;5091289;28;20430;-65
2023/01/11 11:40:35;;;;;;;3.07;1.50;;;13.60;49.70;;;;;;5092135;28;20523;-65
2023/01/11 11:43:19;;;;;;;2.43;1.10;;;13.60;49.40;;;;;;5092235;28;20547;-65
2023/01/11 11:45:54;;;;;;;3.20;1.73;;;13.60;50.10;;;;;;5089811;28;20475;-64
2023/01/11 11:48:23;;;;;;;3.00;1.40;;;13.60;50.00;;;;;;5090231;28;20450;-64
2023/01/11 11:50:53;;;;;;;2.10;1.07;;;13.60;49.40;;;;;;5091740;28;20442;-65
2023/01/11 11:53:34;;;;;;;3.23;1.67;;;13.40;50.00;;;;;;5092301;28;20879;-64
2023/01/11 11:56:16;;;;;;;2.30;1.47;;;13.20;50.10;;;;;;5091672;28;20478;-65
2023/01/11 11:58:45;;;;;;;2.60;1.20;;;12.90;49.70;;;;;;5091809;28;20446;-64
2023/01/11 12:01:27;;;;;;;2.00;0.93;;;12.70;50.50;;;;;;5091744;28;20470;-65
2023/01/11 12:03:58;;;;;;;3.10;1.83;;;12.40;51.20;;;;;;5089964;28;20447;-65
2023/01/11 12:06:27;;;;;;;2.40;1.20;;;12.30;51.80;;;;;;5091376;28;20451;-64
2023/01/11 12:08:56;;;;;;;2.00;1.07;;;12.30;51.80;;;;;;5091599;28;20827;-65
2023/01/11 12:11:33;;;;;;;2.37;0.87;;;12.30;51.80;;;;;;5091020;28;20446;-65
2023/01/11 12:14:03;;;;;;;2.80;1.07;;;12.30;52.10;;;;;;5091352;28;20486;-64
2023/01/11 12:16:34;;;;;;;2.53;1.10;;;12.30;52.90;;;;;;5091236;28;20539;-65
2023/01/11 12:19:03;;;;;;;2.97;1.10;;;12.30;52.50;;;;;;5091152;28;20471;-64
2023/01/11 12:21:30;;;;;;;3.63;1.30;;;12.20;52.60;;;;;;5091365;28;20935;-64
2023/01/11 12:24:18;;;;;;;3.53;1.13;;;12.10;53.30;;;;;;5091429;28;20435;-64
2023/01/11 12:26:55;;;;;;;2.00;1.10;;;12.00;53.70;;;;;;5087833;28;21018;-64
2023/01/11 12:29:46;;;;;;;5.00;1.40;;;11.90;54.20;;;;;;5089948;28;20982;-64
2023/01/11 12:32:53;;;;;;;3.50;2.23;;;11.70;54.70;;;;;;5090791;28;20439;-65
2023/01/11 12:35:31;;;;;;;6.70;3.77;;;11.70;54.80;;;;;;5093369;28;20442;-64
2023/01/11 12:38:23;;;;;;;4.40;3.07;;;11.70;55.40;;;;;;5094032;28;20486;-64
2023/01/11 12:41:08;;;;;;;5.47;2.57;;;11.70;55.90;;;;;;5094987;28;20774;-65
2023/01/11 12:44:02;;;;;;;8.53;2.73;;;11.70;56.50;;;;;;5093719;28;20499;-64
2023/01/11 12:46:49;;;;;;;5.50;2.83;;;11.80;56.10;;;;;;5093803;28;20963;-64
2023/01/11 12:49:29;;;;;;;4.67;1.73;;;11.80;56.10;;;;;;5093650;28;20443;-64
2023/01/11 12:52:38;;;;;;;2.83;1.37;;;11.80;56.30;;;;;;5094127;28;20442;-64
2023/01/11 12:55:19;;;;;;;5.23;2.53;;;11.80;56.40;;;;;;5031303;28;20441;-65
2023/01/11 12:58:00;;;;;;;4.10;1.60;;;11.80;56.70;;;;;;5031456;28;20485;-64
2023/01/11 13:01:12;;;;;;;6.13;2.20;;;11.70;57.40;;;;;;5071805;28;20447;-64
2023/01/11 13:04:05;;;;;;;3.75;2.13;;;11.70;58.10;;;;;;5047330;28;20447;-65
2023/01/11 13:06:39;;;;;;;4.40;2.50;;;11.70;57.90;;;;;;5095637;28;20200;-64
2023/01/11 13:09:17;;;;;;;4.88;3.00;;;11.60;58.40;;;;;;5092227;28;21116;-65
2023/01/11 13:11:53;;;;;;;8.13;3.67;;;11.60;58.60;;;;;;5094809;28;20228;-64
2023/01/11 13:14:47;;;;;;;3.55;2.15;;;11.50;59.00;;;;;;5095429;28;20192;-64
2023/01/11 13:17:22;;;;;;;4.07;1.98;;;11.40;58.90;;;;;;5092233;28;20217;-65
2023/01/11 13:20:02;;;;;;;5.47;2.00;;;11.40;59.30;;;;;;5095159;28;20220;-64
2023/01/11 13:22:33;;;;;;;4.90;2.53;;;11.50;59.70;;;;;;5094506;28;20521;-64
2023/01/11 13:25:04;;;;;;;2.47;1.30;;;11.40;59.10;;;;;;5095215;28;20302;-65
2023/01/11 13:27:33;;;;;;;2.17;1.13;;;11.40;58.80;;;;;;5094558;28;20651;-65
2023/01/11 13:30:02;;;;;;;2.78;1.50;;;11.30;59.10;;;;;;5095023;28;20516;-64
2023/01/11 13:32:35;;;;;;;3.78;1.90;;;11.40;59.40;;;;;;5094765;28;20193;-64
2023/01/11 13:35:12;;;;;;;4.32;2.00;;;11.40;59.60;;;;;;5094882;28;20189;-64
2023/01/11 13:37:44;;;;;;;6.40;2.15;;;11.40;59.40;;;;;;5094704;28;20220;-65
2023/01/11 13:40:20;;;;;;;2.97;1.20;;;11.50;59.60;;;;;;5091899;28;20200;-64